Terminal Aerodrome Forecast
Issued by NWS St Louis, MO

Home | Current Version | Previous Version | Text Only | Print | Product List | Glossary On
Versions: 1 2 3 4 5 6 7 8 9 10 11 12 13 14 15 16 17 18 19 20 21 22 23 24 25 26 27 28
124
FTUS43 KLSX 282104 AAA
TAFCOU
TAF AMD
KCOU 282104Z 2821/2918 06007KT P6SM OVC022
     FM290900 08011G19KT P6SM VCSH OVC015
     FM291200 08012G21KT 5SM SHRA OVC008=

USA.gov is the U.S. government's official web portal to all federal, state and local government web resources and services.